Time;durP1;ratioP1;P1;durP2;ratioP2;P2;SDS_P1;SDS_P2;PMS_P1;PMS_P2;Temp;Humidity;BMP_temperature;BMP_pressure;BME280_temperature;BME280_humidity;BME280_pressure;Samples;Min_cycle;Max_cycle;Signal;HPM_P1;HPM_P2
2024/04/03 00:01:29;;;;;;;1.30;1.20;;;10.70;29.40;;;;;;10424995;28;20252;-71
2024/04/03 00:06:31;;;;;;;1.10;1.00;;;10.70;29.20;;;;;;10421310;28;20777;-71
2024/04/03 00:11:34;;;;;;;1.13;1.03;;;10.80;29.20;;;;;;10413132;28;20268;-71
2024/04/03 00:16:36;;;;;;;1.00;0.97;;;10.90;29.40;;;;;;10422062;28;20245;-71
2024/04/03 00:21:39;;;;;;;1.70;1.00;;;10.90;29.30;;;;;;10436756;28;20783;-71
2024/04/03 00:26:42;;;;;;;1.27;1.17;;;10.90;29.40;;;;;;10448384;28;20252;-71
2024/04/03 00:31:46;;;;;;;1.53;1.00;;;10.90;29.80;;;;;;10424294;28;20265;-71
2024/04/03 00:36:48;;;;;;;1.20;1.10;;;10.90;30.00;;;;;;10421234;28;20245;-71
2024/04/03 00:41:52;;;;;;;1.03;1.00;;;10.80;29.70;;;;;;10424700;28;20764;-71
2024/04/03 00:46:55;;;;;;;0.93;0.80;;;10.80;29.80;;;;;;10419117;28;20326;-71
2024/04/03 00:51:57;;;;;;;1.03;0.90;;;10.90;29.70;;;;;;10433809;28;20699;-71
2024/04/03 00:57:00;;;;;;;1.20;1.10;;;10.90;29.60;;;;;;10429200;28;20260;-71
2024/04/03 01:02:03;;;;;;;1.07;0.97;;;11.00;29.50;;;;;;10428181;28;20256;-70
2024/04/03 01:07:06;;;;;;;3.37;1.00;;;11.10;29.10;;;;;;10426649;28;20663;-71
2024/04/03 01:12:10;;;;;;;2.30;1.07;;;11.00;29.00;;;;;;10425919;28;20775;-71
2024/04/03 01:17:12;;;;;;;0.90;0.90;;;10.90;29.20;;;;;;10428540;28;20731;-71
2024/04/03 01:22:14;;;;;;;1.10;1.00;;;10.80;29.40;;;;;;10421576;28;20238;-71
2024/04/03 01:27:18;;;;;;;3.53;1.00;;;10.60;29.50;;;;;;10418179;28;20274;-71
2024/04/03 01:32:20;;;;;;;0.80;0.80;;;10.50;29.80;;;;;;10420314;28;20279;-71
2024/04/03 01:37:23;;;;;;;0.90;0.90;;;10.50;29.70;;;;;;10426964;28;20749;-71
2024/04/03 01:42:27;;;;;;;1.10;1.00;;;10.50;29.70;;;;;;10420200;28;20281;-72
2024/04/03 01:47:29;;;;;;;1.00;0.90;;;10.60;29.60;;;;;;10424525;28;20253;-71
2024/04/03 01:52:31;;;;;;;1.33;0.80;;;10.60;29.30;;;;;;10420226;28;20300;-71
2024/04/03 01:57:35;;;;;;;1.13;0.77;;;10.60;29.30;;;;;;10422754;28;20735;-71
2024/04/03 02:02:37;;;;;;;0.80;0.80;;;10.60;29.40;;;;;;10425250;28;20700;-71
2024/04/03 02:07:39;;;;;;;1.07;0.80;;;10.60;29.20;;;;;;10425119;28;20261;-71
2024/04/03 02:12:43;;;;;;;0.93;0.80;;;10.70;29.20;;;;;;10421358;28;20276;-71
2024/04/03 02:17:46;;;;;;;0.90;0.90;;;10.70;29.30;;;;;;10424372;28;20312;-71
2024/04/03 02:22:48;;;;;;;1.00;0.80;;;10.70;29.30;;;;;;10424850;28;20294;-71
2024/04/03 02:27:52;;;;;;;0.80;0.80;;;10.70;29.20;;;;;;10435650;28;20797;-71
2024/04/03 02:32:54;;;;;;;1.17;1.07;;;10.70;29.30;;;;;;10437925;28;20249;-71
2024/04/03 02:37:56;;;;;;;0.80;0.80;;;10.70;29.20;;;;;;10422403;28;20244;-71
2024/04/03 02:43:00;;;;;;;1.13;1.00;;;10.60;29.30;;;;;;10421109;28;20312;-71
2024/04/03 02:48:03;;;;;;;1.20;1.10;;;10.60;29.60;;;;;;10421429;28;20248;-71
2024/04/03 02:53:05;;;;;;;1.20;1.10;;;10.60;29.40;;;;;;10421662;28;20307;-71
2024/04/03 02:58:09;;;;;;;1.10;1.00;;;10.60;29.50;;;;;;10421166;28;20245;-71
2024/04/03 03:03:11;;;;;;;0.80;0.80;;;10.60;29.70;;;;;;10434765;28;20245;-71
2024/04/03 03:08:14;;;;;;;1.10;1.00;;;10.60;29.60;;;;;;10422771;28;20266;-71
2024/04/03 03:13:17;;;;;;;2.47;1.20;;;10.60;29.60;;;;;;10416983;28;20291;-71
2024/04/03 03:18:20;;;;;;;1.40;1.00;;;10.60;29.70;;;;;;10422660;28;20306;-71
2024/04/03 03:23:22;;;;;;;1.73;1.00;;;10.50;29.60;;;;;;10414947;28;20311;-71
2024/04/03 03:28:26;;;;;;;1.23;1.10;;;10.50;29.80;;;;;;10425982;28;20709;-71
2024/04/03 03:33:28;;;;;;;1.30;0.90;;;10.40;29.90;;;;;;10416928;28;20246;-71
2024/04/03 03:38:31;;;;;;;1.00;0.97;;;10.50;29.90;;;;;;10436278;28;20298;-71
2024/04/03 03:43:34;;;;;;;1.73;1.33;;;10.50;30.50;;;;;;10419287;28;20836;-71
2024/04/03 03:53:56;;;;;;;1.30;1.20;;;10.50;29.90;;;;;;10422004;28;20241;-71
2024/04/03 03:58:59;;;;;;;1.67;1.57;;;10.50;29.80;;;;;;10425373;28;20240;-71
2024/04/03 04:04:02;;;;;;;2.60;1.90;;;10.50;30.00;;;;;;10431639;28;20252;-71
2024/04/03 04:09:04;;;;;;;1.87;1.57;;;10.50;29.80;;;;;;10427705;28;20304;-71
2024/04/03 04:14:08;;;;;;;2.53;1.47;;;10.40;29.70;;;;;;10440865;28;20264;-71
2024/04/03 04:19:11;;;;;;;2.40;1.33;;;10.30;29.80;;;;;;10428428;28;20257;-71
2024/04/03 04:24:14;;;;;;;2.00;1.70;;;10.20;29.70;;;;;;10426780;28;20347;-71
2024/04/03 04:29:18;;;;;;;2.13;1.90;;;10.10;29.70;;;;;;10429111;28;20268;-71
2024/04/03 04:34:20;;;;;;;2.77;2.47;;;9.90;30.90;;;;;;10432174;28;20279;-71
2024/04/03 04:39:22;;;;;;;3.70;2.43;;;9.80;30.90;;;;;;10425938;28;20260;-71
2024/04/03 04:44:26;;;;;;;3.37;2.50;;;9.70;31.00;;;;;;10431285;28;20245;-71
2024/04/03 04:49:28;;;;;;;2.90;1.60;;;9.70;31.40;;;;;;10425520;28;20260;-71
2024/04/03 04:54:30;;;;;;;1.60;1.50;;;9.60;31.20;;;;;;10427873;28;20249;-71
2024/04/03 04:59:34;;;;;;;2.00;1.43;;;9.50;31.30;;;;;;10426095;28;20414;-71
2024/04/03 05:04:37;;;;;;;2.20;2.00;;;9.40;31.60;;;;;;10427910;28;20279;-71
2024/04/03 05:09:39;;;;;;;2.77;1.87;;;9.40;31.60;;;;;;10423380;28;20316;-71
2024/04/03 05:14:42;;;;;;;4.50;4.20;;;9.40;31.60;;;;;;10434565;28;20319;-71
2024/04/03 05:19:44;;;;;;;3.33;2.97;;;9.40;32.00;;;;;;10439529;28;20245;-71
2024/04/03 05:24:47;;;;;;;3.67;2.00;;;9.30;31.80;;;;;;10424686;28;20249;-71
2024/04/03 05:29:50;;;;;;;1.70;1.60;;;9.20;31.80;;;;;;10425641;28;20260;-71
2024/04/03 05:34:52;;;;;;;1.77;1.50;;;9.20;32.10;;;;;;10421935;28;20241;-71
2024/04/03 05:39:55;;;;;;;1.80;1.70;;;9.10;31.90;;;;;;10423957;28;20257;-71
2024/04/03 05:44:59;;;;;;;1.67;1.53;;;9.10;32.20;;;;;;10417406;28;20267;-71
2024/04/03 05:50:05;;;;;;;2.97;1.50;;;9.00;32.70;;;;;;10418366;28;20295;-71
2024/04/03 05:55:07;;;;;;;2.67;1.50;;;9.00;32.70;;;;;;10422183;28;20260;-71
2024/04/03 06:00:13;;;;;;;3.17;1.57;;;9.10;32.90;;;;;;10420587;28;20249;-71
2024/04/03 06:05:15;;;;;;;2.50;1.70;;;9.10;33.50;;;;;;10423464;28;20256;-71
2024/04/03 06:10:18;;;;;;;2.37;1.60;;;9.20;33.10;;;;;;10422820;28;20692;-71
2024/04/03 06:15:23;;;;;;;2.10;1.60;;;9.30;33.30;;;;;;10419784;28;20329;-71
2024/04/03 06:20:26;;;;;;;3.03;1.77;;;9.40;33.80;;;;;;10418671;28;20860;-71
2024/04/03 06:25:29;;;;;;;2.80;1.70;;;9.50;33.60;;;;;;10418682;28;20244;-71
2024/04/03 06:30:32;;;;;;;1.53;1.33;;;9.50;33.50;;;;;;10415066;28;20244;-71
2024/04/03 06:35:34;;;;;;;2.77;1.40;;;9.60;33.80;;;;;;10421057;28;20245;-71
2024/04/03 06:40:36;;;;;;;2.80;1.40;;;9.70;33.70;;;;;;10431906;28;20245;-71
2024/04/03 06:45:40;;;;;;;1.87;1.50;;;9.90;33.80;;;;;;10423424;28;20323;-71
2024/04/03 06:50:52;;;;;;;4.20;1.50;;;10.00;33.20;;;;;;10420951;28;20299;-71
2024/04/03 06:55:55;;;;;;;1.83;1.20;;;10.20;33.90;;;;;;10421505;28;20746;-71
2024/04/03 07:01:02;;;;;;;1.50;1.40;;;10.30;33.00;;;;;;10416521;28;20245;-71
2024/04/03 07:06:05;;;;;;;1.87;1.43;;;10.40;33.70;;;;;;10422146;28;20630;-70
2024/04/03 07:11:08;;;;;;;1.30;1.20;;;10.60;32.80;;;;;;10414759;28;20257;-71
2024/04/03 07:16:11;;;;;;;0.97;0.97;;;10.70;32.60;;;;;;10419071;28;20255;-71
2024/04/03 07:21:14;;;;;;;1.60;1.50;;;10.80;33.60;;;;;;10422023;28;20267;-71
2024/04/03 07:26:19;;;;;;;1.80;1.23;;;11.00;33.40;;;;;;10419238;28;20264;-71
2024/04/03 07:31:22;;;;;;;1.50;1.20;;;11.10;32.70;;;;;;10409095;28;20307;-71
2024/04/03 07:36:25;;;;;;;1.53;1.23;;;11.30;32.80;;;;;;10416276;28;20241;-71
2024/04/03 07:41:30;;;;;;;1.30;1.20;;;11.50;32.80;;;;;;10424328;28;20251;-71
2024/04/03 07:46:34;;;;;;;4.27;1.30;;;11.70;33.00;;;;;;10422764;28;20252;-71
2024/04/03 07:51:36;;;;;;;1.53;1.00;;;11.90;32.70;;;;;;10414499;28;20298;-71
2024/04/03 07:56:38;;;;;;;1.37;1.27;;;12.00;32.60;;;;;;10416755;28;20268;-71
2024/04/03 08:01:42;;;;;;;1.40;1.30;;;12.20;32.60;;;;;;10424157;28;20296;-71
2024/04/03 08:06:44;;;;;;;1.30;1.20;;;12.40;32.90;;;;;;10420191;28;20253;-71
2024/04/03 08:11:47;;;;;;;2.07;1.40;;;12.60;32.60;;;;;;10426136;28;21570;-71
2024/04/03 08:16:51;;;;;;;2.33;1.20;;;12.80;32.40;;;;;;10415005;28;20237;-71
2024/04/03 08:21:53;;;;;;;1.43;1.30;;;13.00;32.30;;;;;;10416452;28;20267;-71
2024/04/03 08:26:56;;;;;;;1.77;1.27;;;13.20;32.00;;;;;;10417005;28;20252;-71
2024/04/03 08:32:00;;;;;;;3.60;1.27;;;13.30;31.80;;;;;;10415008;28;21000;-71
2024/04/03 08:37:04;;;;;;;1.30;1.20;;;13.50;31.40;;;;;;10415381;28;20257;-71
2024/04/03 08:42:06;;;;;;;1.23;1.03;;;13.60;32.10;;;;;;10424424;28;20335;-71
2024/04/03 08:47:10;;;;;;;1.13;1.03;;;13.80;31.40;;;;;;10421858;28;20252;-71
2024/04/03 08:52:12;;;;;;;2.27;1.20;;;13.90;31.10;;;;;;10420497;28;20249;-71
2024/04/03 08:57:15;;;;;;;1.40;1.03;;;14.10;31.30;;;;;;10427808;28;20316;-71
2024/04/03 09:02:18;;;;;;;1.20;1.00;;;14.20;31.10;;;;;;10438672;28;20703;-71
2024/04/03 09:07:21;;;;;;;1.77;1.13;;;14.30;30.80;;;;;;10422345;28;20867;-71
2024/04/03 09:12:25;;;;;;;1.30;1.20;;;14.40;30.90;;;;;;10426525;28;20792;-71
2024/04/03 09:17:29;;;;;;;1.73;1.30;;;14.50;30.30;;;;;;10422346;28;20244;-71
2024/04/03 09:22:31;;;;;;;1.60;1.40;;;14.60;30.90;;;;;;10425432;28;20390;-71
2024/04/03 09:27:33;;;;;;;1.50;1.40;;;14.70;30.90;;;;;;10418793;28;20307;-71
2024/04/03 09:32:38;;;;;;;2.30;1.60;;;14.60;31.10;;;;;;10436993;28;20303;-71
2024/04/03 09:37:41;;;;;;;2.07;1.90;;;14.70;31.40;;;;;;10418641;28;20252;-71
2024/04/03 09:42:44;;;;;;;1.50;1.40;;;14.70;31.30;;;;;;10419108;28;20256;-71
2024/04/03 09:47:51;;;;;;;1.30;1.20;;;14.70;31.40;;;;;;10420458;28;20738;-70
2024/04/03 09:52:54;;;;;;;1.40;1.30;;;14.80;31.20;;;;;;10421375;28;20719;-71
2024/04/03 09:58:00;;;;;;;3.97;1.33;;;14.80;31.10;;;;;;10419916;28;20304;-71
2024/04/03 10:03:05;;;;;;;1.97;1.20;;;14.80;31.20;;;;;;10438969;28;20298;-71
2024/04/03 10:08:10;;;;;;;2.13;1.20;;;14.80;31.00;;;;;;10426054;28;20320;-71
2024/04/03 10:13:13;;;;;;;1.40;1.27;;;14.90;30.90;;;;;;10419379;28;20269;-71
2024/04/03 10:18:17;;;;;;;1.30;1.10;;;15.00;31.00;;;;;;10425211;28;20307;-71
2024/04/03 10:23:19;;;;;;;1.50;1.40;;;15.10;30.40;;;;;;10419047;28;21173;-71
2024/04/03 10:28:21;;;;;;;1.30;1.20;;;15.20;30.70;;;;;;10424220;28;20285;-71
2024/04/03 10:33:25;;;;;;;2.20;1.20;;;15.30;30.80;;;;;;10419254;28;20252;-71
2024/04/03 10:38:27;;;;;;;1.37;1.00;;;15.40;30.60;;;;;;10435139;28;20307;-71
2024/04/03 10:43:29;;;;;;;1.07;0.90;;;15.50;30.20;;;;;;10437628;28;20257;-71
2024/04/03 10:48:33;;;;;;;0.90;0.90;;;15.70;30.10;;;;;;10424465;28;20253;-71
2024/04/03 10:53:35;;;;;;;2.70;1.10;;;15.80;30.10;;;;;;10421173;28;20253;-71
2024/04/03 10:58:40;;;;;;;1.10;1.00;;;15.90;30.50;;;;;;10418649;28;20966;-71
2024/04/03 11:03:44;;;;;;;1.20;1.03;;;15.90;29.90;;;;;;10422015;28;20844;-71
2024/04/03 11:08:48;;;;;;;1.90;1.40;;;15.90;29.20;;;;;;10422810;28;20268;-70
2024/04/03 11:13:50;;;;;;;1.37;1.20;;;15.90;29.90;;;;;;10420395;28;20303;-71
2024/04/03 11:18:54;;;;;;;1.10;1.10;;;15.90;29.80;;;;;;10418453;28;20249;-71
2024/04/03 11:23:56;;;;;;;1.30;1.20;;;15.90;29.40;;;;;;10416786;28;20272;-71
2024/04/03 11:28:58;;;;;;;1.20;1.10;;;15.90;29.30;;;;;;10422478;28;21017;-71
2024/04/03 11:34:02;;;;;;;1.37;1.23;;;15.90;29.50;;;;;;10419217;28;20259;-71
2024/04/03 11:39:04;;;;;;;1.40;1.30;;;15.90;29.40;;;;;;10418112;28;20248;-71
2024/04/03 11:44:07;;;;;;;1.33;1.23;;;16.00;29.80;;;;;;10422132;28;20249;-71
2024/04/03 11:49:10;;;;;;;1.10;1.00;;;16.00;29.70;;;;;;10420345;28;20249;-71
2024/04/03 11:54:13;;;;;;;2.17;1.23;;;16.10;29.70;;;;;;10419440;28;20311;-71
2024/04/03 11:59:16;;;;;;;1.30;1.20;;;16.20;29.90;;;;;;10415408;28;20256;-70
2024/04/03 12:04:19;;;;;;;2.13;1.30;;;16.30;29.90;;;;;;10414053;28;20273;-70
2024/04/03 12:09:22;;;;;;;1.40;1.30;;;16.40;29.60;;;;;;10421274;28;20257;-71
2024/04/03 12:14:24;;;;;;;1.70;1.33;;;16.50;29.60;;;;;;10420054;28;20260;-71
2024/04/03 12:19:33;;;;;;;1.50;1.40;;;16.60;29.30;;;;;;10428736;28;20311;-71
2024/04/03 12:24:35;;;;;;;2.07;1.30;;;16.60;29.20;;;;;;10427017;28;20261;-71
2024/04/03 12:29:37;;;;;;;3.10;1.50;;;16.70;29.20;;;;;;10421091;28;20245;-71
2024/04/03 12:34:41;;;;;;;1.40;1.30;;;16.70;29.10;;;;;;10429625;28;20253;-71
2024/04/03 12:39:44;;;;;;;1.37;1.00;;;16.80;28.90;;;;;;10438521;28;20731;-71
2024/04/03 12:44:47;;;;;;;1.30;1.10;;;16.90;29.00;;;;;;10427091;28;20275;-71
2024/04/03 12:49:51;;;;;;;2.77;1.10;;;16.90;29.10;;;;;;10425255;28;20380;-71
2024/04/03 12:54:53;;;;;;;2.43;2.20;;;17.00;28.90;;;;;;10429949;28;20291;-71
2024/04/03 12:59:55;;;;;;;2.37;1.33;;;17.00;28.80;;;;;;10423882;28;20699;-71
2024/04/03 13:04:59;;;;;;;1.50;1.40;;;17.00;29.30;;;;;;10417162;28;20283;-71
2024/04/03 13:10:01;;;;;;;1.77;1.30;;;17.10;28.60;;;;;;10424500;28;20249;-71
2024/04/03 13:15:03;;;;;;;1.93;1.40;;;17.10;28.70;;;;;;10421226;28;20253;-70
2024/04/03 13:20:09;;;;;;;1.10;1.00;;;17.00;28.80;;;;;;10425186;28;20244;-70
2024/04/03 13:25:11;;;;;;;2.57;1.10;;;17.00;28.60;;;;;;10423927;28;20256;-71
2024/04/03 13:30:14;;;;;;;0.90;0.90;;;17.00;28.90;;;;;;10422390;28;20253;-71
2024/04/03 13:35:19;;;;;;;1.10;1.00;;;17.00;29.10;;;;;;10417908;28;20969;-71
2024/04/03 13:40:21;;;;;;;1.43;0.93;;;17.10;28.80;;;;;;10418829;28;20248;-71
2024/04/03 13:45:24;;;;;;;2.70;1.37;;;17.20;28.90;;;;;;10422030;28;20252;-71
2024/04/03 13:50:27;;;;;;;1.10;1.00;;;17.30;28.80;;;;;;10422850;28;21169;-70
2024/04/03 13:55:30;;;;;;;1.33;1.20;;;17.30;28.30;;;;;;10420855;28;20298;-70
2024/04/03 14:00:32;;;;;;;5.93;3.40;;;17.30;28.40;;;;;;10420952;28;20252;-70
2024/04/03 14:05:35;;;;;;;3.40;3.10;;;17.30;28.40;;;;;;10419569;28;20318;-71
2024/04/03 14:10:38;;;;;;;3.53;2.73;;;17.20;27.80;;;;;;10418041;28;20306;-71
2024/04/03 14:15:41;;;;;;;2.33;1.50;;;17.10;27.90;;;;;;10419237;28;20259;-70
2024/04/03 14:20:45;;;;;;;1.20;1.10;;;17.00;27.80;;;;;;10417146;28;20252;-70
2024/04/03 14:25:47;;;;;;;3.90;2.50;;;16.80;27.80;;;;;;10419562;28;20264;-71
2024/04/03 14:30:50;;;;;;;1.67;1.07;;;16.80;28.00;;;;;;10417511;28;20248;-71
2024/04/03 14:35:54;;;;;;;1.00;0.90;;;16.70;28.00;;;;;;10417099;28;20253;-71
2024/04/03 14:40:56;;;;;;;1.03;0.80;;;16.60;28.20;;;;;;10433711;28;20233;-71
2024/04/03 14:46:00;;;;;;;1.50;0.60;;;16.50;28.80;;;;;;10421620;28;20306;-71
2024/04/03 14:51:04;;;;;;;0.70;0.70;;;16.30;29.00;;;;;;10418870;28;20275;-71
2024/04/03 14:56:07;;;;;;;1.67;0.90;;;16.10;29.30;;;;;;10420863;28;20315;-71
2024/04/03 15:01:09;;;;;;;0.80;0.80;;;16.00;29.50;;;;;;10419532;28;20261;-71
2024/04/03 15:06:12;;;;;;;0.83;0.80;;;15.80;29.90;;;;;;10420032;28;20249;-71
2024/04/03 15:11:15;;;;;;;0.80;0.80;;;15.70;30.20;;;;;;10422418;28;20312;-71
2024/04/03 15:16:17;;;;;;;0.60;0.60;;;15.60;30.60;;;;;;10417984;28;20257;-71
2024/04/03 15:21:20;;;;;;;0.80;0.80;;;15.40;30.70;;;;;;10413683;28;20249;-71
2024/04/03 15:26:22;;;;;;;0.90;0.90;;;15.30;31.30;;;;;;10424341;28;20251;-71
2024/04/03 15:31:25;;;;;;;1.23;1.00;;;15.10;31.60;;;;;;10416887;28;20307;-71
2024/04/03 15:36:30;;;;;;;0.90;0.90;;;14.90;32.00;;;;;;10432007;28;20676;-71
2024/04/03 15:41:32;;;;;;;1.43;1.10;;;14.90;32.10;;;;;;10417010;28;20283;-71
2024/04/03 15:46:35;;;;;;;1.00;1.00;;;14.80;31.90;;;;;;10418338;28;20251;-71
2024/04/03 15:51:38;;;;;;;1.20;1.10;;;14.70;32.20;;;;;;10428135;28;20241;-71
2024/04/03 15:56:41;;;;;;;1.17;1.10;;;14.60;33.30;;;;;;10426400;28;20950;-71
2024/04/03 16:01:43;;;;;;;2.07;1.97;;;14.60;32.80;;;;;;10426690;28;20268;-70
2024/04/03 16:06:46;;;;;;;1.90;1.80;;;14.50;33.10;;;;;;10429243;28;20245;-70
2024/04/03 16:11:49;;;;;;;1.37;0.90;;;14.50;34.10;;;;;;10426421;28;20778;-70
2024/04/03 16:16:51;;;;;;;1.57;1.20;;;14.40;33.80;;;;;;10429432;28;20251;-70
2024/04/03 16:21:56;;;;;;;1.10;1.00;;;14.20;33.90;;;;;;10423496;28;20260;-70
2024/04/03 16:26:58;;;;;;;1.73;1.40;;;14.10;34.50;;;;;;10430001;28;20280;-70
2024/04/03 16:32:01;;;;;;;2.60;1.83;;;14.10;34.30;;;;;;10428298;28;20294;-70
2024/04/03 16:37:05;;;;;;;3.00;2.63;;;14.00;34.80;;;;;;10428397;28;20306;-70
2024/04/03 16:42:07;;;;;;;3.40;2.73;;;13.90;35.60;;;;;;10427543;28;21066;-70
2024/04/03 16:47:09;;;;;;;6.60;4.80;;;13.90;35.00;;;;;;10430749;28;20703;-71
2024/04/03 16:52:13;;;;;;;2.10;1.90;;;13.90;35.20;;;;;;10420435;28;20341;-71
2024/04/03 16:57:15;;;;;;;2.73;2.20;;;13.90;35.90;;;;;;10422784;28;20260;-71
2024/04/03 17:02:18;;;;;;;2.83;1.70;;;13.80;35.40;;;;;;10422303;28;20330;-71
2024/04/03 17:07:23;;;;;;;1.73;1.63;;;13.80;35.70;;;;;;10428591;28;20252;-71
2024/04/03 17:12:25;;;;;;;2.27;1.73;;;13.70;36.40;;;;;;10424548;28;20248;-71
2024/04/03 17:17:28;;;;;;;1.50;1.40;;;13.70;35.90;;;;;;10424202;28;20379;-70
2024/04/03 17:22:31;;;;;;;1.63;1.53;;;13.70;36.10;;;;;;10421975;28;20256;-71
2024/04/03 17:27:34;;;;;;;1.43;1.43;;;13.60;36.80;;;;;;10422732;28;20256;-70
2024/04/03 17:32:36;;;;;;;1.90;1.80;;;13.50;36.30;;;;;;10423919;28;20257;-71
2024/04/03 17:37:40;;;;;;;1.63;1.53;;;13.40;36.60;;;;;;10421790;28;20241;-71
2024/04/03 17:42:42;;;;;;;1.37;1.27;;;13.40;37.50;;;;;;10419383;28;20292;-71
2024/04/03 17:47:44;;;;;;;1.70;1.60;;;13.30;36.80;;;;;;10424652;28;20260;-71
2024/04/03 17:52:48;;;;;;;1.70;1.60;;;13.30;36.90;;;;;;10424052;28;20275;-70
2024/04/03 17:57:50;;;;;;;1.60;1.40;;;13.30;37.90;;;;;;10422424;28;20236;-70
2024/04/03 18:02:52;;;;;;;2.10;1.70;;;13.30;37.20;;;;;;10423203;28;20318;-71
2024/04/03 18:07:57;;;;;;;1.80;1.70;;;13.30;37.40;;;;;;10429604;28;20781;-71
2024/04/03 18:12:59;;;;;;;1.90;1.80;;;13.30;38.00;;;;;;10435310;28;20259;-71
2024/04/03 18:18:03;;;;;;;1.50;1.40;;;13.30;37.70;;;;;;10417467;28;20253;-71
2024/04/03 18:23:06;;;;;;;2.13;1.50;;;13.30;37.60;;;;;;10420151;28;20244;-71
2024/04/03 18:28:08;;;;;;;2.50;2.30;;;13.30;38.80;;;;;;10420825;28;20306;-71
2024/04/03 18:33:10;;;;;;;2.20;2.00;;;13.20;38.10;;;;;;10421178;28;20805;-71
2024/04/03 18:38:15;;;;;;;3.60;3.20;;;13.20;38.30;;;;;;10415364;28;20752;-71
2024/04/03 18:43:17;;;;;;;4.30;3.90;;;13.20;39.00;;;;;;10434217;28;20699;-70
2024/04/03 18:48:19;;;;;;;2.30;2.20;;;13.10;38.50;;;;;;10418654;28;20253;-71
2024/04/03 18:53:23;;;;;;;1.90;1.80;;;13.10;38.80;;;;;;10419449;28;20264;-71
2024/04/03 18:58:27;;;;;;;1.90;1.60;;;13.10;39.50;;;;;;10418863;28;20898;-71
2024/04/03 19:03:29;;;;;;;1.40;1.30;;;13.10;39.00;;;;;;10417576;28;20252;-71
2024/04/03 19:08:33;;;;;;;1.47;1.37;;;13.20;38.80;;;;;;10419021;28;20302;-71
2024/04/03 19:13:35;;;;;;;1.30;1.20;;;13.20;39.50;;;;;;10421830;28;20716;-71
2024/04/03 19:18:39;;;;;;;2.20;1.30;;;13.20;38.90;;;;;;10418519;28;20241;-71
2024/04/03 19:23:42;;;;;;;1.57;1.10;;;13.20;39.10;;;;;;10418465;28;20303;-71
2024/04/03 19:28:45;;;;;;;1.43;1.10;;;13.30;39.40;;;;;;10417958;28;20798;-71
2024/04/03 19:33:47;;;;;;;1.97;1.10;;;13.30;38.70;;;;;;10412831;28;20287;-71
2024/04/03 19:38:52;;;;;;;2.53;1.47;;;13.30;38.60;;;;;;10419691;28;20237;-71
2024/04/03 19:43:54;;;;;;;1.30;1.20;;;13.30;39.20;;;;;;10420977;28;20972;-71
2024/04/03 19:48:58;;;;;;;1.23;1.10;;;13.30;38.60;;;;;;10430043;28;20253;-71
2024/04/03 19:54:02;;;;;;;1.00;1.00;;;13.30;38.70;;;;;;10417904;28;20257;-71
2024/04/03 19:59:04;;;;;;;1.23;0.90;;;13.30;39.10;;;;;;10419742;28;20635;-71
2024/04/03 20:04:06;;;;;;;1.63;1.00;;;13.30;38.60;;;;;;10424242;28;20249;-71
2024/04/03 20:09:10;;;;;;;1.43;1.00;;;13.30;38.60;;;;;;10416266;28;20252;-72
2024/04/03 20:14:12;;;;;;;0.90;0.90;;;13.30;39.30;;;;;;10416180;28;20287;-71
2024/04/03 20:19:14;;;;;;;0.93;0.83;;;13.30;38.70;;;;;;10417718;28;20299;-71
2024/04/03 20:24:19;;;;;;;1.77;1.03;;;13.30;39.00;;;;;;10418109;28;20326;-71
2024/04/03 20:29:21;;;;;;;1.33;0.80;;;13.30;39.40;;;;;;10415767;28;20339;-71
2024/04/03 20:34:23;;;;;;;0.90;0.80;;;13.30;39.00;;;;;;10426014;28;20256;-71
2024/04/03 20:39:27;;;;;;;0.70;0.70;;;13.30;39.00;;;;;;10425336;28;20706;-71
2024/04/03 20:44:29;;;;;;;1.07;0.87;;;13.30;39.30;;;;;;10423459;28;20248;-71
2024/04/03 20:49:32;;;;;;;1.30;0.73;;;13.30;39.00;;;;;;10424221;28;20311;-71
2024/04/03 20:54:35;;;;;;;1.33;0.80;;;13.30;39.00;;;;;;10426020;28;20252;-71
2024/04/03 20:59:39;;;;;;;1.00;0.63;;;13.30;39.40;;;;;;10425474;28;20245;-71
2024/04/03 21:04:41;;;;;;;1.23;0.80;;;13.30;39.00;;;;;;10424540;28;20261;-71
2024/04/03 21:09:44;;;;;;;0.70;0.70;;;13.30;39.20;;;;;;10427357;28;20314;-71
2024/04/03 21:14:47;;;;;;;1.00;0.90;;;13.30;39.40;;;;;;10422151;28;20249;-71
2024/04/03 21:19:49;;;;;;;0.87;0.70;;;13.40;39.10;;;;;;10417363;28;20256;-71
2024/04/03 21:24:53;;;;;;;0.70;0.70;;;13.40;39.20;;;;;;10417557;28;20256;-71
2024/04/03 21:30:00;;;;;;;1.00;0.87;;;13.40;39.70;;;;;;10415738;28;20253;-71
2024/04/03 21:35:02;;;;;;;1.07;0.70;;;13.40;39.20;;;;;;10415663;28;20271;-71
2024/04/03 21:40:08;;;;;;;0.70;0.70;;;13.40;39.20;;;;;;10420510;28;20261;-71
2024/04/03 21:45:10;;;;;;;1.07;0.70;;;13.40;39.80;;;;;;10434725;28;20260;-71
2024/04/03 21:50:12;;;;;;;0.70;0.70;;;13.50;39.40;;;;;;10419044;28;20312;-71
2024/04/03 21:55:16;;;;;;;1.53;0.60;;;13.50;39.40;;;;;;10436559;28;20264;-71
2024/04/03 22:00:18;;;;;;;1.10;0.50;;;13.50;39.70;;;;;;10421546;28;20743;-71
2024/04/03 22:05:20;;;;;;;1.37;0.70;;;13.50;39.20;;;;;;10436810;28;20253;-72
2024/04/03 22:10:24;;;;;;;0.70;0.60;;;13.60;39.20;;;;;;10421302;28;20253;-71
2024/04/03 22:15:26;;;;;;;0.67;0.67;;;13.60;39.50;;;;;;10424743;28;20253;-71
2024/04/03 22:20:29;;;;;;;0.80;0.80;;;13.60;39.10;;;;;;10426873;28;20257;-71
2024/04/03 22:25:32;;;;;;;2.00;0.70;;;13.60;39.20;;;;;;10416102;28;20248;-72
2024/04/03 22:30:36;;;;;;;0.63;0.63;;;13.60;39.40;;;;;;10434695;28;20311;-71
2024/04/03 22:35:38;;;;;;;0.57;0.57;;;13.60;39.00;;;;;;10437100;28;20245;-71
2024/04/03 22:40:42;;;;;;;1.07;0.70;;;13.60;38.90;;;;;;10431943;28;20245;-72
2024/04/03 22:45:44;;;;;;;0.77;0.63;;;13.60;39.40;;;;;;10420000;28;21624;-71
2024/04/03 22:50:46;;;;;;;0.60;0.60;;;13.60;39.10;;;;;;10430337;28;20252;-71
2024/04/03 22:55:50;;;;;;;1.07;0.70;;;13.60;39.10;;;;;;10418683;28;20285;-71
2024/04/03 23:00:52;;;;;;;1.57;0.60;;;13.60;39.40;;;;;;10411790;28;20245;-71
2024/04/03 23:05:56;;;;;;;0.70;0.70;;;13.70;39.10;;;;;;10433247;28;20257;-71
2024/04/03 23:10:59;;;;;;;0.83;0.60;;;13.70;39.30;;;;;;10416680;28;20259;-71
2024/04/03 23:16:03;;;;;;;0.70;0.70;;;13.70;39.40;;;;;;10432432;28;20863;-71
2024/04/03 23:21:06;;;;;;;0.93;0.60;;;13.80;39.50;;;;;;10432358;28;20249;-71
2024/04/03 23:26:09;;;;;;;1.13;0.60;;;13.80;39.00;;;;;;10421466;28;20248;-71
2024/04/03 23:31:12;;;;;;;0.60;0.60;;;13.90;39.30;;;;;;10419687;28;20263;-71
2024/04/03 23:36:14;;;;;;;1.63;0.70;;;14.00;39.10;;;;;;10437466;28;20264;-71
2024/04/03 23:41:17;;;;;;;0.70;0.70;;;14.00;39.00;;;;;;10416660;28;20264;-71
2024/04/03 23:46:21;;;;;;;0.83;0.60;;;14.00;39.20;;;;;;10433510;28;20260;-71
2024/04/03 23:51:24;;;;;;;0.90;0.60;;;14.10;38.90;;;;;;10417829;28;20668;-71
2024/04/03 23:56:28;;;;;;;0.70;0.50;;;14.10;38.90;;;;;;10420911;28;20656;-71
